Time;durP1;ratioP1;P1;durP2;ratioP2;P2;SDS_P1;SDS_P2;PMS_P1;PMS_P2;Temp;Humidity;BMP_temperature;BMP_pressure;BME280_temperature;BME280_humidity;BME280_pressure;Samples;Min_cycle;Max_cycle;Signal;HPM_P1;HPM_P2
2022/04/20 00:05:00;;;;;;;3.27;1.83;;;9.30;99.90;;;;;;21000289;28;20113;-76
2022/04/20 00:15:00;;;;;;;4.03;2.00;;;9.50;99.90;;;;;;21001336;28;20116;-76
2022/04/20 00:25:02;;;;;;;4.47;2.07;;;9.70;99.90;;;;;;21000479;28;20024;-75
2022/04/20 00:35:03;;;;;;;3.83;1.60;;;9.50;99.90;;;;;;20999355;28;20027;-76
2022/04/20 00:45:05;;;;;;;2.60;1.63;;;9.50;99.90;;;;;;20998839;28;20031;-75
2022/04/20 00:55:07;;;;;;;4.85;2.05;;;9.30;99.90;;;;;;20982747;28;20551;-75
2022/04/20 01:05:09;;;;;;;4.03;1.75;;;9.40;99.90;;;;;;20979327;28;20024;-75
2022/04/20 01:15:22;;;;;;;6.70;2.05;;;9.40;99.90;;;;;;20978962;28;20494;-75
2022/04/20 01:25:43;;;;;;;4.45;2.20;;;9.20;99.90;;;;;;20954104;28;20036;-75
2022/04/20 01:35:54;;;;;;;4.37;1.90;;;9.20;99.90;;;;;;20976502;28;20032;-75
2022/04/20 01:45:55;;;;;;;5.53;1.83;;;9.00;99.90;;;;;;20994163;28;20040;-76
2022/04/20 01:56:31;;;;;;;4.65;2.15;;;8.90;99.90;;;;;;20894201;28;20555;-75
2022/04/20 02:06:43;;;;;;;5.90;2.47;;;8.80;99.90;;;;;;20994048;28;20036;-76
2022/04/20 02:16:47;;;;;;;3.65;2.47;;;8.70;99.90;;;;;;20973596;28;20044;-76
2022/04/20 02:27:13;;;;;;;7.90;2.42;;;8.60;99.90;;;;;;20972741;28;20038;-75
2022/04/20 02:37:15;;;;;;;4.78;2.67;;;8.60;99.90;;;;;;20990634;28;20053;-76
2022/04/20 02:47:17;;;;;;;7.13;2.65;;;8.50;99.90;;;;;;20987156;28;20033;-76
2022/04/20 02:57:19;;;;;;;5.28;2.58;;;8.40;99.90;;;;;;20970336;28;20067;-75
2022/04/20 03:07:24;;;;;;;6.20;2.50;;;8.30;99.90;;;;;;20990683;28;20052;-76
2022/04/20 03:17:28;;;;;;;4.00;2.55;;;8.20;99.90;;;;;;20984783;28;20371;-76
2022/04/20 03:27:28;;;;;;;7.03;2.87;;;8.20;99.90;;;;;;20996490;28;20036;-76
2022/04/20 03:37:31;;;;;;;5.45;2.72;;;8.10;99.90;;;;;;21005472;28;20025;-76
2022/04/20 03:47:32;;;;;;;5.73;3.00;;;7.80;99.90;;;;;;20991591;28;20120;-75
2022/04/20 03:57:33;;;;;;;5.27;2.97;;;7.60;99.90;;;;;;21005418;28;20090;-76
2022/04/20 04:07:37;;;;;;;4.70;2.70;;;7.50;99.90;;;;;;21024775;28;20033;-74
2022/04/20 04:17:39;;;;;;;5.65;3.00;;;7.30;99.90;;;;;;21017779;28;20037;-75
2022/04/20 04:27:40;;;;;;;8.37;3.20;;;7.20;99.90;;;;;;21011301;28;20034;-75
2022/04/20 04:37:42;;;;;;;4.13;2.83;;;6.90;99.90;;;;;;21027773;28;20039;-74
2022/04/20 04:58:06;;;;;;;6.85;3.22;;;6.80;99.90;;;;;;21021041;28;20024;-75
2022/04/20 05:08:09;;;;;;;8.13;3.00;;;6.80;99.90;;;;;;21005830;28;20040;-75
2022/04/20 05:18:10;;;;;;;8.60;2.95;;;6.60;99.90;;;;;;20996843;28;20115;-74
2022/04/20 05:28:14;;;;;;;;;;;6.60;99.90;;;;;;20974469;22;20032;-75
2022/04/20 05:48:38;;;;;;;8.50;3.50;;;7.00;99.90;;;;;;20768737;28;20026;-74
2022/04/20 05:58:47;;;;;;;7.70;2.92;;;7.50;99.90;;;;;;20739965;28;20041;-74
2022/04/20 06:08:49;;;;;;;4.40;2.75;;;7.90;99.90;;;;;;20728603;28;20113;-74
2022/04/20 06:19:28;;;;;;;6.07;3.10;;;8.40;99.90;;;;;;20729233;28;20042;-74
2022/04/20 06:29:38;;;;;;;7.75;3.10;;;8.70;99.90;;;;;;20726946;28;20061;-75
2022/04/20 06:39:56;;;;;;;9.02;3.13;;;9.30;99.90;;;;;;20726554;28;20182;-75
2022/04/20 06:50:28;;;;;;;6.40;2.63;;;9.70;99.90;;;;;;20726129;28;20026;-74
2022/04/20 07:00:48;;;;;;;4.43;2.78;;;10.60;99.90;;;;;;20743294;28;20428;-75
2022/04/20 07:11:07;;;;;;;4.93;2.13;;;11.10;99.90;;;;;;20752974;28;20041;-74
2022/04/20 07:21:08;;;;;;;3.63;2.10;;;11.10;99.90;;;;;;20750816;28;20109;-75
2022/04/20 07:31:15;;;;;;;4.65;2.00;;;12.30;99.90;;;;;;20775535;28;20038;-73
2022/04/20 07:41:48;;;;;;;5.95;2.10;;;12.70;99.90;;;;;;20749374;28;20042;-74
2022/04/20 07:52:19;;;;;;;3.75;2.00;;;13.20;98.70;;;;;;20753636;28;20042;-73
2022/04/20 08:02:38;;;;;;;;;;;13.30;98.80;;;;;;20738368;28;20064;-74
2022/04/20 08:12:58;;;;;;;7.82;1.88;;;14.20;96.90;;;;;;20737086;28;20398;-73
2022/04/20 08:23:02;;;;;;;8.07;1.88;;;14.70;96.30;;;;;;20735001;28;20121;-74
2022/04/20 08:33:07;;;;;;;2.40;1.47;;;15.20;95.10;;;;;;20753060;28;20503;-74
2022/04/20 08:43:11;;;;;;;5.68;2.00;;;15.50;93.40;;;;;;20752297;28;20041;-74
2022/04/20 08:53:16;;;;;;;4.53;2.03;;;15.70;93.80;;;;;;20751382;28;20041;-74
2022/04/20 09:03:18;;;;;;;5.07;1.83;;;16.10;92.50;;;;;;20750736;28;20152;-74
2022/04/20 09:13:41;;;;;;;4.55;2.20;;;16.40;92.80;;;;;;20749788;28;20034;-74
2022/04/20 09:23:42;;;;;;;4.57;1.98;;;17.20;92.10;;;;;;20750041;28;20029;-74
2022/04/20 09:33:45;;;;;;;3.67;2.10;;;18.00;91.60;;;;;;20771817;28;20037;-74
2022/04/20 09:44:08;;;;;;;4.63;2.03;;;18.10;90.00;;;;;;20788184;28;20034;-75
2022/04/20 09:54:28;;;;;;;5.63;1.90;;;18.80;90.40;;;;;;20747142;28;20072;-73
2022/04/20 10:04:29;;;;;;;2.90;1.92;;;18.30;91.30;;;;;;20746386;28;20396;-75
2022/04/20 10:24:56;;;;;;;3.43;1.90;;;19.40;90.20;;;;;;20745117;28;20041;-75
2022/04/20 10:34:59;;;;;;;4.30;2.08;;;19.50;87.80;;;;;;20744316;28;20040;-75
2022/04/20 10:45:16;;;;;;;3.47;1.70;;;19.80;88.90;;;;;;20726139;28;20038;-75
2022/04/20 10:55:22;;;;;;;4.40;2.20;;;20.20;88.60;;;;;;20775791;28;20511;-74
2022/04/20 11:05:26;;;;;;;2.45;1.85;;;19.80;89.80;;;;;;20806591;28;20124;-75
2022/04/20 11:25:53;;;;;;;3.53;2.38;;;21.20;85.20;;;;;;20882453;28;20094;-74
2022/04/20 11:35:57;;;;;;;3.20;1.92;;;20.20;90.30;;;;;;20915026;22;20053;-75
2022/04/20 11:45:59;;;;;;;3.15;2.05;;;21.40;86.20;;;;;;20848246;28;20548;-76
2022/04/20 11:56:01;;;;;;;5.88;2.47;;;20.80;84.50;;;;;;20919754;28;20063;-76
2022/04/20 12:06:07;;;;;;;3.53;2.13;;;21.20;85.20;;;;;;20917229;28;20380;-75
2022/04/20 12:16:10;;;;;;;4.40;2.20;;;21.30;83.90;;;;;;20894970;28;20027;-75
2022/04/20 12:26:11;;;;;;;5.43;2.42;;;21.30;80.80;;;;;;20890540;28;20024;-75
2022/04/20 12:36:12;;;;;;;3.10;2.10;;;21.40;81.20;;;;;;20897128;28;20035;-75
2022/04/20 12:46:17;;;;;;;4.15;2.13;;;21.70;82.80;;;;;;20879298;28;20624;-75
2022/04/20 13:06:37;;;;;;;5.47;2.15;;;20.50;84.70;;;;;;20843753;28;20033;-75
2022/04/20 13:16:38;;;;;;;3.87;2.53;;;20.40;83.30;;;;;;20861740;28;20479;-76
2022/04/20 13:36:58;;;;;;;2.65;2.00;;;21.00;83.60;;;;;;20902370;28;20569;-76
2022/04/20 13:46:59;;;;;;;4.77;1.80;;;21.30;85.50;;;;;;20886519;28;20036;-76
2022/04/20 13:57:00;;;;;;;4.27;2.00;;;21.30;87.50;;;;;;20895863;28;20036;-75
2022/04/20 14:07:03;;;;;;;5.43;2.10;;;20.50;83.30;;;;;;20966146;28;20046;-76
2022/04/20 14:17:04;;;;;;;5.57;1.63;;;19.90;87.00;;;;;;20931959;28;20124;-76
2022/04/20 14:37:24;;;;;;;5.22;2.10;;;20.30;81.60;;;;;;20854032;28;20125;-76
2022/04/20 14:47:25;;;;;;;5.53;2.30;;;20.90;84.50;;;;;;20847052;28;20137;-76
2022/04/20 14:57:26;;;;;;;6.10;2.27;;;19.80;82.30;;;;;;20866284;28;20030;-77
2022/04/20 15:07:27;;;;;;;2.43;1.80;;;20.20;79.70;;;;;;20848128;28;20282;-77
2022/04/20 15:17:27;;;;;;;2.67;2.17;;;20.30;84.50;;;;;;20846131;28;20103;-77
2022/04/20 15:27:28;;;;;;;6.40;2.53;;;19.40;82.90;;;;;;20851809;28;20029;-76
2022/04/20 15:37:29;;;;;;;4.47;2.73;;;19.80;84.90;;;;;;20890621;28;20028;-77
2022/04/20 15:47:30;;;;;;;3.97;2.43;;;19.40;83.70;;;;;;20893573;28;20032;-77
2022/04/20 16:07:51;;;;;;;7.72;2.13;;;19.20;80.50;;;;;;20860570;28;20376;-77
2022/04/20 16:17:52;;;;;;;6.90;1.95;;;18.50;83.60;;;;;;20883310;28;20024;-76
2022/04/20 16:27:54;;;;;;;4.50;2.60;;;17.90;85.60;;;;;;20873388;28;20051;-76
2022/04/20 16:37:55;;;;;;;6.03;2.80;;;18.10;82.60;;;;;;20873182;28;20033;-76
2022/04/20 16:47:56;;;;;;;5.40;2.40;;;17.40;85.20;;;;;;20854210;28;20030;-77
2022/04/20 16:57:57;;;;;;;4.53;2.30;;;17.20;84.20;;;;;;20899860;28;20044;-76
2022/04/20 17:07:58;;;;;;;5.30;2.30;;;16.60;83.70;;;;;;20915086;28;20282;-77
2022/04/20 17:17:58;;;;;;;4.67;2.17;;;16.10;85.00;;;;;;20896909;28;20037;-76
2022/04/20 17:28:00;;;;;;;4.53;2.73;;;16.00;85.70;;;;;;20895041;28;20032;-76
2022/04/20 17:38:01;;;;;;;;;;;16.10;84.00;;;;;;20950721;22;20033;-74
2022/04/20 17:48:02;;;;;;;9.30;2.60;;;15.80;85.30;;;;;;20816105;28;19913;-75
2022/04/20 17:58:04;;;;;;;6.43;2.73;;;15.20;87.80;;;;;;20828326;28;20707;-75
2022/04/20 18:08:05;;;;;;;4.43;2.70;;;14.80;90.00;;;;;;20811101;28;20030;-77
2022/04/20 18:18:06;;;;;;;8.70;3.23;;;14.40;90.30;;;;;;20827001;28;20037;-76
2022/04/20 18:28:07;;;;;;;5.13;2.60;;;13.90;91.70;;;;;;20826570;28;20033;-76
2022/04/20 18:38:07;;;;;;;6.60;3.13;;;13.40;91.30;;;;;;20825697;28;20395;-75
2022/04/20 18:48:08;;;;;;;10.97;3.07;;;13.10;90.60;;;;;;20807767;28;20492;-74
2022/04/20 18:58:09;;;;;;;6.40;3.43;;;13.10;91.00;;;;;;20824710;28;20047;-75
2022/04/20 19:08:10;;;;;;;7.70;3.90;;;12.80;91.30;;;;;;20836748;28;20064;-74
2022/04/20 19:18:11;;;;;;;6.07;3.47;;;12.50;92.10;;;;;;20841487;28;20083;-75
2022/04/20 19:28:13;;;;;;;8.63;4.20;;;12.10;92.30;;;;;;20862568;28;20482;-76
2022/04/20 19:38:14;;;;;;;10.38;4.03;;;11.30;94.20;;;;;;20860879;28;20029;-75
2022/04/20 19:48:15;;;;;;;11.63;3.83;;;11.20;94.20;;;;;;20880731;28;20045;-75
2022/04/20 19:58:16;;;;;;;6.40;4.00;;;11.00;93.10;;;;;;20881306;28;20061;-75
2022/04/20 20:08:17;;;;;;;9.83;4.17;;;10.80;94.10;;;;;;20869730;28;20028;-75
2022/04/20 20:18:18;;;;;;;11.90;5.03;;;10.50;94.70;;;;;;20851739;28;20507;-75
2022/04/20 20:38:40;;;;;;;10.05;5.18;;;9.90;96.40;;;;;;20868079;28;20063;-75
2022/04/20 20:59:00;;;;;;;8.63;5.20;;;9.70;97.20;;;;;;20889697;28;20037;-75
2022/04/20 21:09:01;;;;;;;11.40;4.90;;;9.70;97.10;;;;;;20914800;28;20032;-75
2022/04/20 21:19:06;;;;;;;10.63;5.63;;;9.80;97.00;;;;;;20896320;28;20066;-75
2022/04/20 21:29:07;;;;;;;7.82;4.60;;;9.70;96.60;;;;;;20912789;28;20049;-75
2022/04/20 21:39:08;;;;;;;8.55;4.63;;;9.50;97.40;;;;;;20894829;28;20040;-75
2022/04/20 21:49:09;;;;;;;8.20;5.17;;;9.10;98.50;;;;;;20911880;28;20415;-75
2022/04/20 21:59:10;;;;;;;7.23;4.13;;;8.70;99.30;;;;;;20893155;28;20028;-75
2022/04/20 22:09:12;;;;;;;8.00;4.10;;;8.50;99.60;;;;;;20910048;28;20033;-75
2022/04/20 22:19:14;;;;;;;8.30;4.60;;;8.50;99.40;;;;;;20909377;28;20044;-75
2022/04/20 22:29:15;;;;;;;7.68;4.35;;;8.20;99.90;;;;;;20910220;28;20035;-75
2022/04/20 22:39:16;;;;;;;12.18;4.68;;;8.20;99.90;;;;;;20907784;28;20128;-75
2022/04/20 22:49:16;;;;;;;8.07;4.23;;;8.30;99.90;;;;;;20908147;28;20436;-75
2022/04/20 22:59:17;;;;;;;6.87;4.20;;;8.10;99.90;;;;;;20907669;28;20025;-75
2022/04/20 23:09:19;;;;;;;16.23;4.37;;;8.10;99.90;;;;;;20907525;28;20025;-76
2022/04/20 23:19:20;;;;;;;6.43;3.83;;;8.10;99.90;;;;;;20906924;28;20029;-76
2022/04/20 23:29:21;;;;;;;6.50;4.00;;;8.10;99.90;;;;;;20921032;22;20013;-75
2022/04/20 23:39:22;;;;;;;6.00;3.77;;;8.20;99.90;;;;;;20986813;28;20028;-76
2022/04/20 23:49:22;;;;;;;5.63;3.83;;;8.30;99.60;;;;;;20991993;28;20463;-76
2022/04/20 23:59:23;;;;;;;7.50;4.17;;;8.40;99.10;;;;;;21003365;28;20040;-76
